sensor_id;sensor_type;location;lat;lon;timestamp;pressure;altitude;pressure_sealevel;temperature;humidity
68508;BME280;55510;49.560;19.090;2024-03-22T03:42:03;96590.41;;;6.28;100.00
68508;BME280;55510;49.560;19.090;2024-03-22T03:45:04;96586.31;;;6.32;100.00
68508;BME280;55510;49.560;19.090;2024-03-22T03:48:05;96583.84;;;6.37;100.00
68508;BME280;55510;49.560;19.090;2024-03-22T03:51:05;96574.47;;;6.41;100.00
68508;BME280;55510;49.560;19.090;2024-03-22T03:54:06;96571.66;;;6.36;100.00
68508;BME280;55510;49.560;19.090;2024-03-22T03:57:07;96573.44;;;6.42;100.00
68508;BME280;55510;49.560;19.090;2024-03-22T04:00:08;96563.88;;;6.48;100.00
68508;BME280;55510;49.560;19.090;2024-03-22T04:03:09;96572.13;;;6.58;100.00
68508;BME280;55510;49.560;19.090;2024-03-22T04:06:10;96576.38;;;6.66;100.00
68508;BME280;55510;49.560;19.090;2024-03-22T04:09:10;96562.88;;;6.74;100.00
68508;BME280;55510;49.560;19.090;2024-03-22T04:12:11;96574.66;;;6.78;100.00
68508;BME280;55510;49.560;19.090;2024-03-22T04:15:12;96570.56;;;6.82;100.00
68508;BME280;55510;49.560;19.090;2024-03-22T04:18:12;96564.84;;;6.86;100.00
68508;BME280;55510;49.560;19.090;2024-03-22T04:21:13;96564.41;;;6.89;100.00
68508;BME280;55510;49.560;19.090;2024-03-22T04:24:14;96565.16;;;6.96;100.00
68508;BME280;55510;49.560;19.090;2024-03-22T04:27:14;96565.00;;;6.91;100.00
68508;BME280;55510;49.560;19.090;2024-03-22T04:30:15;96573.53;;;6.93;100.00
68508;BME280;55510;49.560;19.090;2024-03-22T04:33:16;96564.88;;;7.04;100.00
68508;BME280;55510;49.560;19.090;2024-03-22T04:36:16;96566.09;;;7.08;100.00
68508;BME280;55510;49.560;19.090;2024-03-22T04:39:19;96567.53;;;7.04;100.00
68508;BME280;55510;49.560;19.090;2024-03-22T04:42:20;96567.88;;;7.15;100.00
68508;BME280;55510;49.560;19.090;2024-03-22T04:45:21;96564.50;;;7.26;100.00
68508;BME280;55510;49.560;19.090;2024-03-22T04:48:22;96562.75;;;7.38;100.00
68508;BME280;55510;49.560;19.090;2024-03-22T04:51:23;96568.69;;;7.59;100.00
68508;BME280;55510;49.560;19.090;2024-03-22T04:54:24;96565.69;;;7.74;100.00
68508;BME280;55510;49.560;19.090;2024-03-22T04:57:24;96566.31;;;7.88;100.00
68508;BME280;55510;49.560;19.090;2024-03-22T05:00:25;96570.19;;;8.04;100.00
68508;BME280;55510;49.560;19.090;2024-03-22T05:03:26;61888.91;;;-147.19;100.00
68508;BME280;55510;49.560;19.090;2024-03-22T05:06:26;61888.91;;;-147.19;100.00
68508;BME280;55510;49.560;19.090;2024-03-22T05:09:33;61888.91;;;-147.19;100.00
68508;BME280;55510;49.560;19.090;2024-03-22T05:12:40;61888.91;;;-147.19;100.00
68508;BME280;55510;49.560;19.090;2024-03-22T05:15:48;61888.91;;;-147.19;100.00
68508;BME280;55510;49.560;19.090;2024-03-22T05:18:48;61888.91;;;-147.19;100.00
68508;BME280;55510;49.560;19.090;2024-03-22T05:21:49;61888.91;;;-147.19;100.00
68508;BME280;55510;49.560;19.090;2024-03-22T05:24:50;61888.91;;;-147.19;100.00
68508;BME280;55510;49.560;19.090;2024-03-22T05:27:51;61888.91;;;-147.19;100.00
68508;BME280;55510;49.560;19.090;2024-03-22T05:30:52;61888.91;;;-147.19;100.00
68508;BME280;55510;49.560;19.090;2024-03-22T05:33:53;61888.91;;;-147.19;100.00
68508;BME280;55510;49.560;19.090;2024-03-22T05:36:53;61888.91;;;-147.19;100.00
68508;BME280;55510;49.560;19.090;2024-03-22T05:39:54;61888.91;;;-147.19;100.00
68508;BME280;55510;49.560;19.090;2024-03-22T05:42:55;61888.91;;;-147.19;100.00
68508;BME280;55510;49.560;19.090;2024-03-22T05:45:57;61888.91;;;-147.19;100.00
68508;BME280;55510;49.560;19.090;2024-03-22T05:48:57;61888.91;;;-147.19;100.00
68508;BME280;55510;49.560;19.090;2024-03-22T05:51:59;61888.91;;;-147.19;100.00
68508;BME280;55510;49.560;19.090;2024-03-22T05:54:59;61888.91;;;-147.19;100.00
68508;BME280;55510;49.560;19.090;2024-03-22T05:58:00;61888.91;;;-147.19;100.00
68508;BME280;55510;49.560;19.090;2024-03-22T06:01:01;61888.91;;;-147.19;100.00
68508;BME280;55510;49.560;19.090;2024-03-22T06:04:01;61888.91;;;-147.19;100.00
68508;BME280;55510;49.560;19.090;2024-03-22T06:07:02;61888.91;;;-147.19;100.00
68508;BME280;55510;49.560;19.090;2024-03-22T06:10:05;61888.91;;;-147.19;100.00
68508;BME280;55510;49.560;19.090;2024-03-22T06:13:06;61888.91;;;-147.19;100.00
68508;BME280;55510;49.560;19.090;2024-03-22T06:16:07;61888.91;;;-147.19;100.00
68508;BME280;55510;49.560;19.090;2024-03-22T06:19:07;61888.91;;;-147.19;100.00
68508;BME280;55510;49.560;19.090;2024-03-22T06:22:08;61888.91;;;-147.19;100.00
68508;BME280;55510;49.560;19.090;2024-03-22T06:25:09;61888.91;;;-147.19;100.00
68508;BME280;55510;49.560;19.090;2024-03-22T06:28:10;61888.91;;;-147.19;100.00
68508;BME280;55510;49.560;19.090;2024-03-22T06:31:10;61888.91;;;-147.19;100.00
68508;BME280;55510;49.560;19.090;2024-03-22T06:34:13;61888.91;;;-147.19;100.00
68508;BME280;55510;49.560;19.090;2024-03-22T06:37:13;61888.91;;;-147.19;100.00
68508;BME280;55510;49.560;19.090;2024-03-22T06:40:14;61888.91;;;-147.19;100.00
68508;BME280;55510;49.560;19.090;2024-03-22T06:43:15;61888.91;;;-147.19;100.00
68508;BME280;55510;49.560;19.090;2024-03-22T06:46:16;61888.91;;;-147.19;100.00
68508;BME280;55510;49.560;19.090;2024-03-22T06:49:16;61888.91;;;-147.19;100.00
68508;BME280;55510;49.560;19.090;2024-03-22T06:52:18;61888.91;;;-147.19;100.00
68508;BME280;55510;49.560;19.090;2024-03-22T06:55:20;61888.91;;;-147.19;100.00
68508;BME280;55510;49.560;19.090;2024-03-22T06:58:21;61888.91;;;-147.19;100.00
68508;BME280;55510;49.560;19.090;2024-03-22T07:01:21;61888.91;;;-147.19;100.00
68508;BME280;55510;49.560;19.090;2024-03-22T07:04:22;61888.91;;;-147.19;100.00
68508;BME280;55510;49.560;19.090;2024-03-22T07:07:23;61888.91;;;-147.19;100.00
68508;BME280;55510;49.560;19.090;2024-03-22T07:10:24;61888.91;;;-147.19;100.00
68508;BME280;55510;49.560;19.090;2024-03-22T07:13:28;61888.91;;;-147.19;100.00
68508;BME280;55510;49.560;19.090;2024-03-22T07:16:29;61888.91;;;-147.19;100.00
68508;BME280;55510;49.560;19.090;2024-03-22T07:19:29;61888.91;;;-147.19;100.00
68508;BME280;55510;49.560;19.090;2024-03-22T07:22:30;61888.91;;;-147.19;100.00
68508;BME280;55510;49.560;19.090;2024-03-22T07:25:31;61888.91;;;-147.19;100.00
68508;BME280;55510;49.560;19.090;2024-03-22T07:28:32;61888.91;;;-147.19;100.00
68508;BME280;55510;49.560;19.090;2024-03-22T07:31:32;61888.91;;;-147.19;100.00
68508;BME280;55510;49.560;19.090;2024-03-22T07:34:33;61888.91;;;-147.19;100.00
68508;BME280;55510;49.560;19.090;2024-03-22T07:37:33;61888.91;;;-147.19;100.00
68508;BME280;55510;49.560;19.090;2024-03-22T07:40:35;61888.91;;;-147.19;100.00
68508;BME280;55510;49.560;19.090;2024-03-22T07:43:36;61888.91;;;-147.19;100.00
68508;BME280;55510;49.560;19.090;2024-03-22T07:46:37;61888.91;;;-147.19;100.00
68508;BME280;55510;49.560;19.090;2024-03-22T07:49:37;61888.91;;;-147.19;100.00
68508;BME280;55510;49.560;19.090;2024-03-22T07:52:38;61888.91;;;-147.19;100.00
68508;BME280;55510;49.560;19.090;2024-03-22T07:55:39;61888.91;;;-147.19;100.00
68508;BME280;55510;49.560;19.090;2024-03-22T07:58:40;61888.91;;;-147.19;100.00
68508;BME280;55510;49.560;19.090;2024-03-22T08:01:40;61888.91;;;-147.19;100.00
68508;BME280;55510;49.560;19.090;2024-03-22T08:04:41;61888.91;;;-147.19;100.00
68508;BME280;55510;49.560;19.090;2024-03-22T08:07:42;61888.91;;;-147.19;100.00
68508;BME280;55510;49.560;19.090;2024-03-22T08:10:43;61888.91;;;-147.19;100.00
68508;BME280;55510;49.560;19.090;2024-03-22T08:13:44;61888.91;;;-147.19;100.00
68508;BME280;55510;49.560;19.090;2024-03-22T08:16:45;61888.91;;;-147.19;100.00
68508;BME280;55510;49.560;19.090;2024-03-22T08:19:45;61888.91;;;-147.19;100.00
68508;BME280;55510;49.560;19.090;2024-03-22T08:22:46;61888.91;;;-147.19;100.00
68508;BME280;55510;49.560;19.090;2024-03-22T08:25:47;61888.91;;;-147.19;100.00
68508;BME280;55510;49.560;19.090;2024-03-22T08:28:48;61888.91;;;-147.19;100.00
68508;BME280;55510;49.560;19.090;2024-03-22T08:31:49;61888.91;;;-147.19;100.00
68508;BME280;55510;49.560;19.090;2024-03-22T08:34:49;61888.91;;;-147.19;100.00
68508;BME280;55510;49.560;19.090;2024-03-22T08:37:50;61888.91;;;-147.19;100.00
68508;BME280;55510;49.560;19.090;2024-03-22T08:40:50;61888.91;;;-147.19;100.00
68508;BME280;55510;49.560;19.090;2024-03-22T08:43:51;61888.91;;;-147.19;100.00
68508;BME280;55510;49.560;19.090;2024-03-22T08:46:52;61888.91;;;-147.19;100.00
68508;BME280;55510;49.560;19.090;2024-03-22T08:49:53;61888.91;;;-147.19;100.00
68508;BME280;55510;49.560;19.090;2024-03-22T08:52:53;61888.91;;;-147.19;100.00
68508;BME280;55510;49.560;19.090;2024-03-22T08:55:54;61888.91;;;-147.19;100.00
68508;BME280;55510;49.560;19.090;2024-03-22T08:58:54;61888.91;;;-147.19;100.00
68508;BME280;55510;49.560;19.090;2024-03-22T09:01:56;61888.91;;;-147.19;100.00
68508;BME280;55510;49.560;19.090;2024-03-22T09:04:56;61888.91;;;-147.19;100.00
68508;BME280;55510;49.560;19.090;2024-03-22T09:07:57;61888.91;;;-147.19;100.00
68508;BME280;55510;49.560;19.090;2024-03-22T09:10:57;61888.91;;;-147.19;100.00
68508;BME280;55510;49.560;19.090;2024-03-22T09:13:58;61888.91;;;-147.19;100.00
68508;BME280;55510;49.560;19.090;2024-03-22T09:16:59;61888.91;;;-147.19;100.00
68508;BME280;55510;49.560;19.090;2024-03-22T09:20:00;61888.91;;;-147.19;100.00
68508;BME280;55510;49.560;19.090;2024-03-22T09:23:01;61888.91;;;-147.19;100.00
68508;BME280;55510;49.560;19.090;2024-03-22T09:26:02;61888.91;;;-147.19;100.00
68508;BME280;55510;49.560;19.090;2024-03-22T09:29:02;61888.91;;;-147.19;100.00
68508;BME280;55510;49.560;19.090;2024-03-22T09:32:04;61888.91;;;-147.19;100.00
68508;BME280;55510;49.560;19.090;2024-03-22T09:35:05;61888.91;;;-147.19;100.00
68508;BME280;55510;49.560;19.090;2024-03-22T09:40:34;96498.91;;;12.43;80.95
68508;BME280;55510;49.560;19.090;2024-03-22T09:43:35;96505.03;;;12.76;79.96
68508;BME280;55510;49.560;19.090;2024-03-22T09:46:36;96506.59;;;12.72;81.65
68508;BME280;55510;49.560;19.090;2024-03-22T09:49:38;96512.34;;;13.24;78.58
68508;BME280;55510;49.560;19.090;2024-03-22T09:52:41;96501.28;;;13.04;79.24
68508;BME280;55510;49.560;19.090;2024-03-22T09:55:42;96502.25;;;13.31;76.41
68508;BME280;55510;49.560;19.090;2024-03-22T09:58:44;96511.25;;;13.62;74.64
68508;BME280;55510;49.560;19.090;2024-03-22T10:01:45;96503.06;;;13.80;71.55
68508;BME280;55510;49.560;19.090;2024-03-22T10:04:46;96498.03;;;13.94;71.56
68508;BME280;55510;49.560;19.090;2024-03-22T10:07:47;96503.13;;;14.00;69.16
68508;BME280;55510;49.560;19.090;2024-03-22T10:10:48;96502.59;;;14.03;71.18
68508;BME280;55510;49.560;19.090;2024-03-22T10:13:48;96504.84;;;14.43;68.74
68508;BME280;55510;49.560;19.090;2024-03-22T10:16:52;96506.88;;;14.04;70.37
68508;BME280;55510;49.560;19.090;2024-03-22T10:19:56;96496.72;;;14.06;69.47
68508;BME280;55510;49.560;19.090;2024-03-22T10:22:58;96495.59;;;12.63;74.09
68508;BME280;55510;49.560;19.090;2024-03-22T10:26:00;96496.63;;;12.89;75.51
68508;BME280;55510;49.560;19.090;2024-03-22T10:29:03;96497.09;;;13.67;71.83
68508;BME280;55510;49.560;19.090;2024-03-22T10:32:06;96492.53;;;13.19;72.48
68508;BME280;55510;49.560;19.090;2024-03-22T10:35:11;96492.53;;;13.19;72.48
68508;BME280;55510;49.560;19.090;2024-03-22T10:38:14;96487.69;;;13.11;73.37
68508;BME280;55510;49.560;19.090;2024-03-22T10:41:14;96487.69;;;13.11;73.37
68508;BME280;55510;49.560;19.090;2024-03-22T10:44:16;96492.19;;;13.43;72.37
68508;BME280;55510;49.560;19.090;2024-03-22T10:47:18;96495.16;;;14.16;71.41
68508;BME280;55510;49.560;19.090;2024-03-22T10:50:22;96489.63;;;14.74;66.70
68508;BME280;55510;49.560;19.090;2024-03-22T10:53:26;96484.25;;;14.64;65.85
68508;BME280;55510;49.560;19.090;2024-03-22T10:56:28;96485.38;;;14.84;64.27
68508;BME280;55510;49.560;19.090;2024-03-22T10:59:34;96485.38;;;14.84;64.27
68508;BME280;55510;49.560;19.090;2024-03-22T11:02:36;96485.38;;;14.84;64.27
68508;BME280;55510;49.560;19.090;2024-03-22T11:05:49;96485.38;;;14.84;64.27
68508;BME280;55510;49.560;19.090;2024-03-22T11:08:51;96467.41;;;15.05;63.92
68508;BME280;55510;49.560;19.090;2024-03-22T11:11:53;96473.53;;;14.64;63.50
68508;BME280;55510;49.560;19.090;2024-03-22T11:14:55;96473.53;;;14.64;63.50
68508;BME280;55510;49.560;19.090;2024-03-22T11:17:56;96473.53;;;14.64;63.50
68508;BME280;55510;49.560;19.090;2024-03-22T11:20:57;96473.53;;;14.64;63.50
68508;BME280;55510;49.560;19.090;2024-03-22T11:24:03;96473.53;;;14.64;63.50
68508;BME280;55510;49.560;19.090;2024-03-22T11:27:04;96473.53;;;14.64;63.50
68508;BME280;55510;49.560;19.090;2024-03-22T11:30:05;96473.53;;;14.64;63.50
68508;BME280;55510;49.560;19.090;2024-03-22T11:33:06;96473.53;;;14.64;63.50
68508;BME280;55510;49.560;19.090;2024-03-22T11:36:08;96473.53;;;14.64;63.50
68508;BME280;55510;49.560;19.090;2024-03-22T11:39:09;96473.53;;;14.64;63.50
68508;BME280;55510;49.560;19.090;2024-03-22T11:42:10;96421.28;;;13.35;69.61
68508;BME280;55510;49.560;19.090;2024-03-22T11:45:13;96421.28;;;13.35;69.61
68508;BME280;55510;49.560;19.090;2024-03-22T11:48:15;96421.28;;;13.35;69.61
68508;BME280;55510;49.560;19.090;2024-03-22T11:51:17;96421.28;;;13.35;69.61
68508;BME280;55510;49.560;19.090;2024-03-22T11:54:20;96421.28;;;13.35;69.61
68508;BME280;55510;49.560;19.090;2024-03-22T11:57:21;96421.28;;;13.35;69.61
68508;BME280;55510;49.560;19.090;2024-03-22T12:00:22;96421.28;;;13.35;69.61
68508;BME280;55510;49.560;19.090;2024-03-22T12:03:23;96421.28;;;13.35;69.61
68508;BME280;55510;49.560;19.090;2024-03-22T12:06:24;96421.28;;;13.35;69.61
68508;BME280;55510;49.560;19.090;2024-03-22T12:09:25;96421.28;;;13.35;69.61
68508;BME280;55510;49.560;19.090;2024-03-22T12:12:25;96421.28;;;13.35;69.61
68508;BME280;55510;49.560;19.090;2024-03-22T12:15:27;96421.28;;;13.35;69.61
68508;BME280;55510;49.560;19.090;2024-03-22T12:18:27;96421.28;;;13.35;69.61
68508;BME280;55510;49.560;19.090;2024-03-22T12:21:28;96421.28;;;13.35;69.61
68508;BME280;55510;49.560;19.090;2024-03-22T12:24:29;96354.63;;;15.57;55.01
68508;BME280;55510;49.560;19.090;2024-03-22T12:27:30;96345.50;;;16.03;55.58
68508;BME280;55510;49.560;19.090;2024-03-22T12:30:30;96340.06;;;15.13;54.66
68508;BME280;55510;49.560;19.090;2024-03-22T12:33:31;96333.53;;;15.34;54.86
68508;BME280;55510;49.560;19.090;2024-03-22T12:36:31;96332.00;;;15.18;53.64
68508;BME280;55510;49.560;19.090;2024-03-22T12:39:32;96330.00;;;13.75;58.15
68508;BME280;55510;49.560;19.090;2024-03-22T12:42:33;96327.59;;;13.84;58.23
68508;BME280;55510;49.560;19.090;2024-03-22T12:45:34;96321.72;;;13.97;57.37
68508;BME280;55510;49.560;19.090;2024-03-22T12:48:34;96321.41;;;13.52;58.27
68508;BME280;55510;49.560;19.090;2024-03-22T12:51:35;96315.22;;;13.46;59.17
68508;BME280;55510;49.560;19.090;2024-03-22T12:54:36;96314.16;;;13.42;57.89
68508;BME280;55510;49.560;19.090;2024-03-22T12:57:37;96309.13;;;13.82;59.03
68508;BME280;55510;49.560;19.090;2024-03-22T13:00:37;96311.81;;;13.82;57.36
68508;BME280;55510;49.560;19.090;2024-03-22T13:03:38;96311.50;;;13.63;58.11
68508;BME280;55510;49.560;19.090;2024-03-22T13:06:39;96310.63;;;13.42;57.99
68508;BME280;55510;49.560;19.090;2024-03-22T13:09:40;96312.88;;;13.86;57.08
68508;BME280;55510;49.560;19.090;2024-03-22T13:12:41;96310.94;;;12.76;60.96
68508;BME280;55510;49.560;19.090;2024-03-22T13:15:43;96313.09;;;12.80;59.67
68508;BME280;55510;49.560;19.090;2024-03-22T13:18:44;96320.44;;;13.10;59.65
68508;BME280;55510;49.560;19.090;2024-03-22T13:21:45;96316.34;;;13.66;58.87
68508;BME280;55510;49.560;19.090;2024-03-22T13:24:49;96319.06;;;14.18;57.55
68508;BME280;55510;49.560;19.090;2024-03-22T13:27:51;96320.09;;;14.48;55.62
68508;BME280;55510;49.560;19.090;2024-03-22T13:31:04;96320.88;;;14.74;53.74
68508;BME280;55510;49.560;19.090;2024-03-22T13:34:06;96320.88;;;14.59;55.28
68508;BME280;55510;49.560;19.090;2024-03-22T13:37:07;96318.63;;;15.07;53.89
68508;BME280;55510;49.560;19.090;2024-03-22T13:40:08;96313.28;;;15.07;52.81
68508;BME280;55510;49.560;19.090;2024-03-22T13:43:09;96319.03;;;14.44;55.63
68508;BME280;55510;49.560;19.090;2024-03-22T13:46:10;96313.44;;;13.99;55.81
68508;BME280;55510;49.560;19.090;2024-03-22T13:49:18;96303.00;;;14.28;56.78
68508;BME280;55510;49.560;19.090;2024-03-22T13:52:21;96293.91;;;14.03;56.86
68508;BME280;55510;49.560;19.090;2024-03-22T13:55:21;96294.72;;;13.94;56.18
68508;BME280;55510;49.560;19.090;2024-03-22T13:58:22;96283.22;;;13.72;57.09
68508;BME280;55510;49.560;19.090;2024-03-22T14:01:23;96279.44;;;13.99;55.96
68508;BME280;55510;49.560;19.090;2024-03-22T14:04:23;96276.50;;;13.90;56.98
68508;BME280;55510;49.560;19.090;2024-03-22T14:07:26;96268.53;;;12.90;60.51
68508;BME280;55510;49.560;19.090;2024-03-22T14:10:27;96268.06;;;13.09;60.87
68508;BME280;55510;49.560;19.090;2024-03-22T14:13:31;96275.13;;;13.46;59.21
68508;BME280;55510;49.560;19.090;2024-03-22T14:16:32;96266.59;;;13.55;59.38
68508;BME280;55510;49.560;19.090;2024-03-22T14:19:32;96262.34;;;13.80;58.84
68508;BME280;55510;49.560;19.090;2024-03-22T14:22:33;96261.81;;;13.93;56.57
68508;BME280;55510;49.560;19.090;2024-03-22T14:25:34;96272.50;;;13.88;56.86
68508;BME280;55510;49.560;19.090;2024-03-22T14:28:35;96264.81;;;12.91;59.88
68508;BME280;55510;49.560;19.090;2024-03-22T14:31:38;96266.72;;;13.07;61.17
68508;BME280;55510;49.560;19.090;2024-03-22T14:34:39;96266.72;;;13.07;61.17
68508;BME280;55510;49.560;19.090;2024-03-22T14:37:40;96270.84;;;12.71;60.80
68508;BME280;55510;49.560;19.090;2024-03-22T14:40:41;96268.53;;;12.90;59.72
68508;BME280;55510;49.560;19.090;2024-03-22T14:43:41;96257.91;;;13.06;59.50
68508;BME280;55510;49.560;19.090;2024-03-22T14:46:42;96260.38;;;13.33;58.58
68508;BME280;55510;49.560;19.090;2024-03-22T14:49:43;96257.50;;;13.45;57.93
68508;BME280;55510;49.560;19.090;2024-03-22T14:52:44;96263.88;;;13.39;58.24
68508;BME280;55510;49.560;19.090;2024-03-22T14:55:58;96257.50;;;13.61;56.83
68508;BME280;55510;49.560;19.090;2024-03-22T14:58:59;96256.19;;;13.69;55.92
68508;BME280;55510;49.560;19.090;2024-03-22T15:02:01;96258.59;;;13.86;56.03
68508;BME280;55510;49.560;19.090;2024-03-22T15:05:02;96256.97;;;14.21;54.48
68508;BME280;55510;49.560;19.090;2024-03-22T15:08:05;96248.16;;;13.89;55.44
68508;BME280;55510;49.560;19.090;2024-03-22T15:11:05;96252.06;;;14.59;54.28
68508;BME280;55510;49.560;19.090;2024-03-22T15:14:06;96244.63;;;13.27;57.65
68508;BME280;55510;49.560;19.090;2024-03-22T15:17:07;96245.59;;;13.00;59.32
68508;BME280;55510;49.560;19.090;2024-03-22T15:20:09;96243.16;;;12.98;59.78
68508;BME280;55510;49.560;19.090;2024-03-22T15:23:10;96243.16;;;12.98;59.78
68508;BME280;55510;49.560;19.090;2024-03-22T15:26:10;96246.81;;;13.51;57.47
68508;BME280;55510;49.560;19.090;2024-03-22T15:29:11;96246.81;;;13.51;57.47
68508;BME280;55510;49.560;19.090;2024-03-22T15:32:12;96239.59;;;13.72;55.80
68508;BME280;55510;49.560;19.090;2024-03-22T15:35:12;96230.75;;;13.56;56.75
68508;BME280;55510;49.560;19.090;2024-03-22T15:38:13;96229.69;;;13.62;56.65
68508;BME280;55510;49.560;19.090;2024-03-22T15:41:15;96228.59;;;13.37;56.49
68508;BME280;55510;49.560;19.090;2024-03-22T15:44:18;96220.06;;;13.56;56.43
68508;BME280;55510;49.560;19.090;2024-03-22T15:47:19;96220.06;;;13.56;56.43
68508;BME280;55510;49.560;19.090;2024-03-22T15:50:20;96220.06;;;13.56;56.43
68508;BME280;55510;49.560;19.090;2024-03-22T15:53:21;96220.06;;;13.56;56.43
68508;BME280;55510;49.560;19.090;2024-03-22T15:56:21;96220.06;;;13.56;56.43
68508;BME280;55510;49.560;19.090;2024-03-22T15:59:22;96220.06;;;13.56;56.43
68508;BME280;55510;49.560;19.090;2024-03-22T16:02:23;96220.50;;;13.06;57.51
68508;BME280;55510;49.560;19.090;2024-03-22T16:05:24;96220.50;;;13.06;57.51
68508;BME280;55510;49.560;19.090;2024-03-22T16:08:25;96220.50;;;13.06;57.51
68508;BME280;55510;49.560;19.090;2024-03-22T16:11:26;96213.91;;;12.55;59.97
68508;BME280;55510;49.560;19.090;2024-03-22T16:14:26;96213.91;;;12.55;59.97
68508;BME280;55510;49.560;19.090;2024-03-22T16:17:27;96213.91;;;12.55;59.97
68508;BME280;55510;49.560;19.090;2024-03-22T16:20:27;96213.91;;;12.55;59.97
68508;BME280;55510;49.560;19.090;2024-03-22T16:23:29;96213.91;;;12.55;59.97
68508;BME280;55510;49.560;19.090;2024-03-22T16:26:30;96213.91;;;12.55;59.97
68508;BME280;55510;49.560;19.090;2024-03-22T16:29:31;96213.91;;;12.55;59.97
68508;BME280;55510;49.560;19.090;2024-03-22T16:32:32;96213.91;;;12.55;59.97
68508;BME280;55510;49.560;19.090;2024-03-22T16:35:33;96204.75;;;11.98;62.34
68508;BME280;55510;49.560;19.090;2024-03-22T16:38:33;96201.72;;;11.84;63.71
68508;BME280;55510;49.560;19.090;2024-03-22T16:41:34;96210.72;;;11.72;64.14
68508;BME280;55510;49.560;19.090;2024-03-22T16:44:34;96210.72;;;11.72;64.14
68508;BME280;55510;49.560;19.090;2024-03-22T16:47:36;96210.72;;;11.72;64.14
68508;BME280;55510;49.560;19.090;2024-03-22T16:50:36;96210.72;;;11.72;64.14
68508;BME280;55510;49.560;19.090;2024-03-22T16:53:37;96210.72;;;11.72;64.14
68508;BME280;55510;49.560;19.090;2024-03-22T16:56:38;96210.72;;;11.72;64.14
68508;BME280;55510;49.560;19.090;2024-03-22T16:59:39;96210.72;;;11.72;64.14
68508;BME280;55510;49.560;19.090;2024-03-22T17:02:39;96210.72;;;-147.18;64.14
68508;BME280;55510;49.560;19.090;2024-03-22T17:05:40;96210.72;;;11.72;64.14
68508;BME280;55510;49.560;19.090;2024-03-22T17:08:41;61888.91;;;-147.19;100.00
68508;BME280;55510;49.560;19.090;2024-03-22T17:11:42;96210.72;;;11.72;64.14
68508;BME280;55510;49.560;19.090;2024-03-22T17:14:42;96210.72;;;11.72;64.14
68508;BME280;55510;49.560;19.090;2024-03-22T17:17:43;96210.72;;;11.72;64.14
68508;BME280;55510;49.560;19.090;2024-03-22T17:20:45;96210.72;;;-147.18;64.14
68508;BME280;55510;49.560;19.090;2024-03-22T17:23:46;96210.72;;;11.72;64.14
68508;BME280;55510;49.560;19.090;2024-03-22T17:26:47;96210.72;;;11.72;64.14
68508;BME280;55510;49.560;19.090;2024-03-22T17:29:49;96210.72;;;11.72;64.14
68508;BME280;55510;49.560;19.090;2024-03-22T17:32:50;61888.91;;;-147.19;100.00
68508;BME280;55510;49.560;19.090;2024-03-22T17:35:50;96210.72;;;11.72;64.14
68508;BME280;55510;49.560;19.090;2024-03-22T17:38:51;96210.72;;;11.72;64.14
68508;BME280;55510;49.560;19.090;2024-03-22T17:41:52;96211.50;;;10.85;68.67
68508;BME280;55510;49.560;19.090;2024-03-22T17:44:52;96211.19;;;10.82;69.03
68508;BME280;55510;49.560;19.090;2024-03-22T17:47:53;96211.19;;;10.82;69.03
68508;BME280;55510;49.560;19.090;2024-03-22T17:50:54;96210.09;;;10.78;69.59
68508;BME280;55510;49.560;19.090;2024-03-22T17:53:55;96202.84;;;10.73;69.84
68508;BME280;55510;49.560;19.090;2024-03-22T17:56:55;96199.59;;;10.66;70.46
68508;BME280;55510;49.560;19.090;2024-03-22T17:59:56;96199.59;;;10.66;70.46
68508;BME280;55510;49.560;19.090;2024-03-22T18:02:56;96201.44;;;10.65;70.32
68508;BME280;55510;49.560;19.090;2024-03-22T18:05:57;96203.22;;;10.59;71.25
68508;BME280;55510;49.560;19.090;2024-03-22T18:09:04;96203.22;;;10.59;71.25
68508;BME280;55510;49.560;19.090;2024-03-22T18:12:05;96206.03;;;10.48;72.63
68508;BME280;55510;49.560;19.090;2024-03-22T18:15:06;96206.03;;;10.48;72.63
68508;BME280;55510;49.560;19.090;2024-03-22T18:18:09;96206.03;;;10.48;72.63
68508;BME280;55510;49.560;19.090;2024-03-22T18:21:10;96206.03;;;10.48;72.63
68508;BME280;55510;49.560;19.090;2024-03-22T18:24:11;96206.03;;;10.48;72.63
68508;BME280;55510;49.560;19.090;2024-03-22T18:27:11;96206.03;;;10.48;72.63
68508;BME280;55510;49.560;19.090;2024-03-22T18:30:12;96206.03;;;10.48;72.63
68508;BME280;55510;49.560;19.090;2024-03-22T18:33:13;96206.03;;;10.48;72.63
68508;BME280;55510;49.560;19.090;2024-03-22T18:36:14;96206.03;;;10.48;72.63
68508;BME280;55510;49.560;19.090;2024-03-22T18:39:14;61888.91;;;-147.19;100.00
68508;BME280;55510;49.560;19.090;2024-03-22T18:42:16;61888.91;;;-147.19;100.00
68508;BME280;55510;49.560;19.090;2024-03-22T18:45:19;61888.91;;;-147.19;100.00
68508;BME280;55510;49.560;19.090;2024-03-22T18:48:20;96206.03;;;10.48;72.63
68508;BME280;55510;49.560;19.090;2024-03-22T18:51:21;96206.03;;;10.48;72.63
68508;BME280;55510;49.560;19.090;2024-03-22T18:54:21;61888.91;;;-147.19;55.06
